sensor_id;sensor_type;location;lat;lon;timestamp;pressure;altitude;pressure_sealevel;temperature;humidity
69037;BME280;58547;51.690;5.186;2022-11-21T00:00:16;100622.25;;;5.21;100.00
69037;BME280;58547;51.690;5.186;2022-11-21T00:02:42;100637.88;;;5.18;100.00
69037;BME280;58547;51.690;5.186;2022-11-21T00:05:07;100650.88;;;5.17;100.00
69037;BME280;58547;51.690;5.186;2022-11-21T00:07:32;100655.09;;;5.19;100.00
69037;BME280;58547;51.690;5.186;2022-11-21T00:09:58;100666.31;;;5.18;100.00
69037;BME280;58547;51.690;5.186;2022-11-21T00:12:23;100671.66;;;5.14;100.00
69037;BME280;58547;51.690;5.186;2022-11-21T00:14:48;100661.47;;;5.09;100.00
69037;BME280;58547;51.690;5.186;2022-11-21T00:17:13;100654.72;;;5.05;100.00
69037;BME280;58547;51.690;5.186;2022-11-21T00:19:38;100669.59;;;4.98;100.00
69037;BME280;58547;51.690;5.186;2022-11-21T00:22:03;100635.38;;;4.92;100.00
69037;BME280;58547;51.690;5.186;2022-11-21T00:24:29;100616.56;;;4.86;100.00
69037;BME280;58547;51.690;5.186;2022-11-21T00:26:54;100628.72;;;4.84;100.00
69037;BME280;58547;51.690;5.186;2022-11-21T00:29:19;100642.53;;;4.83;100.00
69037;BME280;58547;51.690;5.186;2022-11-21T00:31:44;100636.88;;;4.72;100.00
69037;BME280;58547;51.690;5.186;2022-11-21T00:34:10;100650.00;;;4.66;100.00
69037;BME280;58547;51.690;5.186;2022-11-21T00:36:35;100664.03;;;4.59;100.00
69037;BME280;58547;51.690;5.186;2022-11-21T00:39:00;100663.25;;;4.55;100.00
69037;BME280;58547;51.690;5.186;2022-11-21T00:41:25;100659.84;;;4.55;100.00
69037;BME280;58547;51.690;5.186;2022-11-21T00:43:50;100658.94;;;4.56;100.00
69037;BME280;58547;51.690;5.186;2022-11-21T00:46:16;100664.22;;;4.53;100.00
69037;BME280;58547;51.690;5.186;2022-11-21T00:48:41;100657.47;;;4.49;100.00
69037;BME280;58547;51.690;5.186;2022-11-21T00:51:06;100669.72;;;4.42;100.00
69037;BME280;58547;51.690;5.186;2022-11-21T00:53:31;100665.47;;;4.39;100.00
69037;BME280;58547;51.690;5.186;2022-11-21T00:55:56;100648.38;;;4.35;100.00
69037;BME280;58547;51.690;5.186;2022-11-21T00:58:22;100653.66;;;4.32;100.00
69037;BME280;58547;51.690;5.186;2022-11-21T01:00:47;100656.25;;;4.32;100.00
69037;BME280;58547;51.690;5.186;2022-11-21T01:03:12;100663.28;;;4.27;100.00
69037;BME280;58547;51.690;5.186;2022-11-21T01:05:37;100659.16;;;4.21;100.00
69037;BME280;58547;51.690;5.186;2022-11-21T01:08:03;100658.41;;;4.18;100.00
69037;BME280;58547;51.690;5.186;2022-11-21T01:10:28;100655.84;;;4.18;100.00
69037;BME280;58547;51.690;5.186;2022-11-21T01:12:53;100655.69;;;4.22;100.00
69037;BME280;58547;51.690;5.186;2022-11-21T01:15:18;100653.22;;;4.19;100.00
69037;BME280;58547;51.690;5.186;2022-11-21T01:17:43;100654.16;;;4.17;100.00
69037;BME280;58547;51.690;5.186;2022-11-21T01:20:09;100641.31;;;4.14;100.00
69037;BME280;58547;51.690;5.186;2022-11-21T01:22:34;100631.16;;;4.09;100.00
69037;BME280;58547;51.690;5.186;2022-11-21T01:24:59;100622.56;;;4.09;100.00
69037;BME280;58547;51.690;5.186;2022-11-21T01:27:24;100624.25;;;4.10;100.00
69037;BME280;58547;51.690;5.186;2022-11-21T01:29:50;100644.81;;;4.13;100.00
69037;BME280;58547;51.690;5.186;2022-11-21T01:32:16;100654.38;;;4.09;100.00
69037;BME280;58547;51.690;5.186;2022-11-21T01:34:41;100651.94;;;4.04;100.00
69037;BME280;58547;51.690;5.186;2022-11-21T01:37:06;100654.56;;;4.03;100.00
69037;BME280;58547;51.690;5.186;2022-11-21T01:39:32;100645.91;;;4.04;100.00
69037;BME280;58547;51.690;5.186;2022-11-21T01:41:57;100650.53;;;3.94;100.00
69037;BME280;58547;51.690;5.186;2022-11-21T01:44:43;100646.41;;;3.89;100.00
69037;BME280;58547;51.690;5.186;2022-11-21T01:47:09;100661.84;;;3.90;100.00
69037;BME280;58547;51.690;5.186;2022-11-21T01:49:34;100660.13;;;3.89;100.00
69037;BME280;58547;51.690;5.186;2022-11-21T01:52:07;100663.59;;;3.90;100.00
69037;BME280;58547;51.690;5.186;2022-11-21T01:54:38;100678.13;;;3.92;100.00
69037;BME280;58547;51.690;5.186;2022-11-21T01:57:07;100671.19;;;3.94;100.00
69037;BME280;58547;51.690;5.186;2022-11-21T01:59:48;100669.41;;;3.96;100.00
69037;BME280;58547;51.690;5.186;2022-11-21T02:02:15;100661.81;;;3.92;100.00
69037;BME280;58547;51.690;5.186;2022-11-21T02:04:41;100655.09;;;3.86;100.00
69037;BME280;58547;51.690;5.186;2022-11-21T02:07:07;100656.03;;;3.83;100.00
69037;BME280;58547;51.690;5.186;2022-11-21T02:09:33;100653.34;;;3.87;100.00
69037;BME280;58547;51.690;5.186;2022-11-21T02:12:10;100642.53;;;3.74;100.00
69037;BME280;58547;51.690;5.186;2022-11-21T02:14:37;100650.53;;;3.64;100.00
69037;BME280;58547;51.690;5.186;2022-11-21T02:17:05;100643.59;;;3.67;100.00
69037;BME280;58547;51.690;5.186;2022-11-21T02:25:00;100651.91;;;3.76;100.00
69037;BME280;58547;51.690;5.186;2022-11-21T02:27:25;100652.72;;;3.78;100.00
69037;BME280;58547;51.690;5.186;2022-11-21T02:29:50;100657.91;;;3.77;100.00
69037;BME280;58547;51.690;5.186;2022-11-21T02:32:20;100668.22;;;3.77;100.00
69037;BME280;58547;51.690;5.186;2022-11-21T02:34:45;100669.28;;;3.71;100.00
69037;BME280;58547;51.690;5.186;2022-11-21T02:37:10;100674.66;;;3.63;100.00
69037;BME280;58547;51.690;5.186;2022-11-21T02:39:36;100673.31;;;3.50;100.00
69037;BME280;58547;51.690;5.186;2022-11-21T02:42:06;100671.69;;;3.46;100.00
69037;BME280;58547;51.690;5.186;2022-11-21T02:44:44;100670.66;;;3.52;100.00
69037;BME280;58547;51.690;5.186;2022-11-21T02:47:12;100671.47;;;3.54;100.00
69037;BME280;58547;51.690;5.186;2022-11-21T02:49:47;100675.50;;;3.62;100.00
69037;BME280;58547;51.690;5.186;2022-11-21T02:52:13;100664.31;;;3.63;100.00
69037;BME280;58547;51.690;5.186;2022-11-21T02:54:38;100668.41;;;3.71;100.00
69037;BME280;58547;51.690;5.186;2022-11-21T02:57:03;100658.69;;;3.80;100.00
69037;BME280;58547;51.690;5.186;2022-11-21T02:59:28;100662.03;;;3.84;100.00
69037;BME280;58547;51.690;5.186;2022-11-21T03:01:53;100647.19;;;3.91;100.00
69037;BME280;58547;51.690;5.186;2022-11-21T03:04:21;100646.97;;;3.98;100.00
69037;BME280;58547;51.690;5.186;2022-11-21T03:06:46;100643.78;;;3.90;100.00
69037;BME280;58547;51.690;5.186;2022-11-21T03:09:11;100651.69;;;3.84;100.00
69037;BME280;58547;51.690;5.186;2022-11-21T03:11:37;100654.59;;;3.73;100.00
69037;BME280;58547;51.690;5.186;2022-11-21T03:14:02;100651.78;;;3.81;100.00
69037;BME280;58547;51.690;5.186;2022-11-21T03:16:27;100650.72;;;3.88;100.00
69037;BME280;58547;51.690;5.186;2022-11-21T03:18:52;100640.41;;;3.88;100.00
69037;BME280;58547;51.690;5.186;2022-11-21T03:21:17;100643.66;;;3.93;100.00
69037;BME280;58547;51.690;5.186;2022-11-21T03:23:43;100649.75;;;3.92;100.00
69037;BME280;58547;51.690;5.186;2022-11-21T03:26:08;100647.16;;;3.92;100.00
69037;BME280;58547;51.690;5.186;2022-11-21T03:28:33;100635.59;;;4.04;100.00
69037;BME280;58547;51.690;5.186;2022-11-21T03:30:58;100633.78;;;4.08;100.00
69037;BME280;58547;51.690;5.186;2022-11-21T03:33:24;100639.84;;;4.07;100.00
69037;BME280;58547;51.690;5.186;2022-11-21T03:35:49;100637.94;;;4.12;100.00
69037;BME280;58547;51.690;5.186;2022-11-21T03:38:14;100651.84;;;4.08;100.00
69037;BME280;58547;51.690;5.186;2022-11-21T03:40:39;100640.75;;;4.04;100.00
69037;BME280;58547;51.690;5.186;2022-11-21T03:43:04;100643.16;;;4.10;100.00
69037;BME280;58547;51.690;5.186;2022-11-21T03:45:30;100633.41;;;4.20;100.00
69037;BME280;58547;51.690;5.186;2022-11-21T03:47:55;100642.63;;;4.27;100.00
69037;BME280;58547;51.690;5.186;2022-11-21T03:50:20;100637.25;;;4.33;100.00
69037;BME280;58547;51.690;5.186;2022-11-21T03:52:46;100637.06;;;4.39;100.00
69037;BME280;58547;51.690;5.186;2022-11-21T03:55:11;100631.53;;;4.25;100.00
69037;BME280;58547;51.690;5.186;2022-11-21T03:57:36;100628.53;;;4.11;100.00
69037;BME280;58547;51.690;5.186;2022-11-21T04:00:02;100635.06;;;3.94;100.00
69037;BME280;58547;51.690;5.186;2022-11-21T04:02:28;100642.22;;;3.84;100.00
69037;BME280;58547;51.690;5.186;2022-11-21T04:04:53;100655.25;;;3.80;100.00
69037;BME280;58547;51.690;5.186;2022-11-21T04:07:18;100650.25;;;3.75;100.00
69037;BME280;58547;51.690;5.186;2022-11-21T04:09:43;100639.34;;;3.65;100.00
69037;BME280;58547;51.690;5.186;2022-11-21T04:12:08;100627.53;;;3.58;100.00
69037;BME280;58547;51.690;5.186;2022-11-21T04:14:34;100625.91;;;3.54;100.00
69037;BME280;58547;51.690;5.186;2022-11-21T04:16:59;100623.41;;;3.51;100.00
69037;BME280;58547;51.690;5.186;2022-11-21T04:19:24;100620.75;;;3.54;100.00
69037;BME280;58547;51.690;5.186;2022-11-21T04:21:49;100616.81;;;3.71;100.00
69037;BME280;58547;51.690;5.186;2022-11-21T04:24:15;100629.59;;;3.75;100.00
69037;BME280;58547;51.690;5.186;2022-11-21T04:26:40;100628.19;;;3.65;100.00
69037;BME280;58547;51.690;5.186;2022-11-21T04:29:05;100627.28;;;3.66;100.00
69037;BME280;58547;51.690;5.186;2022-11-21T04:31:30;100625.41;;;3.71;100.00
69037;BME280;58547;51.690;5.186;2022-11-21T04:33:55;100624.03;;;3.59;100.00
69037;BME280;58547;51.690;5.186;2022-11-21T04:36:21;100623.41;;;3.51;100.00
69037;BME280;58547;51.690;5.186;2022-11-21T04:38:46;100621.97;;;3.41;100.00
69037;BME280;58547;51.690;5.186;2022-11-21T04:41:11;100615.31;;;3.34;100.00
69037;BME280;58547;51.690;5.186;2022-11-21T04:43:36;100611.16;;;3.28;100.00
69037;BME280;58547;51.690;5.186;2022-11-21T04:46:02;100610.41;;;3.24;100.00
69037;BME280;58547;51.690;5.186;2022-11-21T04:48:27;100614.72;;;3.24;100.00
69037;BME280;58547;51.690;5.186;2022-11-21T04:50:52;100612.09;;;3.26;100.00
69037;BME280;58547;51.690;5.186;2022-11-21T04:53:17;100601.88;;;3.22;100.00
69037;BME280;58547;51.690;5.186;2022-11-21T04:55:43;100601.88;;;3.22;100.00
69037;BME280;58547;51.690;5.186;2022-11-21T04:58:08;100606.22;;;3.20;100.00
69037;BME280;58547;51.690;5.186;2022-11-21T05:00:33;100599.47;;;3.16;100.00
69037;BME280;58547;51.690;5.186;2022-11-21T05:03:02;100601.22;;;3.14;100.00
69037;BME280;58547;51.690;5.186;2022-11-21T05:05:28;100596.94;;;3.15;100.00
69037;BME280;58547;51.690;5.186;2022-11-21T05:07:53;100600.25;;;3.18;100.00
69037;BME280;58547;51.690;5.186;2022-11-21T05:10:18;100588.81;;;3.29;100.00
69037;BME280;58547;51.690;5.186;2022-11-21T05:12:43;100590.34;;;3.36;100.00
69037;BME280;58547;51.690;5.186;2022-11-21T05:15:27;100583.16;;;3.45;100.00
69037;BME280;58547;51.690;5.186;2022-11-21T05:17:53;100586.69;;;3.43;100.00
69037;BME280;58547;51.690;5.186;2022-11-21T05:20:18;100583.06;;;3.50;100.00
69037;BME280;58547;51.690;5.186;2022-11-21T05:22:43;100572.44;;;3.59;100.00
69037;BME280;58547;51.690;5.186;2022-11-21T05:25:13;100561.03;;;3.67;100.00
69037;BME280;58547;51.690;5.186;2022-11-21T05:27:38;100562.78;;;3.66;100.00
69037;BME280;58547;51.690;5.186;2022-11-21T05:30:04;100547.78;;;3.51;100.00
69037;BME280;58547;51.690;5.186;2022-11-21T05:32:29;100549.81;;;3.39;100.00
69037;BME280;58547;51.690;5.186;2022-11-21T05:34:54;100550.97;;;3.29;100.00
69037;BME280;58547;51.690;5.186;2022-11-21T05:37:19;100561.56;;;3.20;100.00
69037;BME280;58547;51.690;5.186;2022-11-21T05:39:45;100550.66;;;3.10;100.00
69037;BME280;58547;51.690;5.186;2022-11-21T05:42:11;100548.22;;;3.06;100.00
69037;BME280;58547;51.690;5.186;2022-11-21T05:44:36;100552.44;;;3.08;100.00
69037;BME280;58547;51.690;5.186;2022-11-21T05:47:01;100550.75;;;3.07;100.00
69037;BME280;58547;51.690;5.186;2022-11-21T05:49:26;100552.41;;;3.10;100.00
69037;BME280;58547;51.690;5.186;2022-11-21T05:51:51;100543.69;;;3.14;100.00
69037;BME280;58547;51.690;5.186;2022-11-21T05:54:17;100542.34;;;3.32;100.00
69037;BME280;58547;51.690;5.186;2022-11-21T05:56:42;100544.28;;;3.23;100.00
69037;BME280;58547;51.690;5.186;2022-11-21T05:59:07;100536.06;;;3.11;100.00
69037;BME280;58547;51.690;5.186;2022-11-21T06:01:32;100536.88;;;3.13;100.00
69037;BME280;58547;51.690;5.186;2022-11-21T06:04:23;100535.47;;;3.01;100.00
69037;BME280;58547;51.690;5.186;2022-11-21T06:06:48;100539.19;;;2.91;100.00
69037;BME280;58547;51.690;5.186;2022-11-21T06:09:13;100542.03;;;2.81;100.00
69037;BME280;58547;51.690;5.186;2022-11-21T06:11:39;100536.19;;;2.75;100.00
69037;BME280;58547;51.690;5.186;2022-11-21T06:14:04;100537.13;;;2.71;100.00
69037;BME280;58547;51.690;5.186;2022-11-21T06:16:29;100537.13;;;2.71;100.00
69037;BME280;58547;51.690;5.186;2022-11-21T06:18:54;100525.19;;;2.68;100.00
69037;BME280;58547;51.690;5.186;2022-11-21T06:21:21;100534.66;;;2.68;100.00
69037;BME280;58547;51.690;5.186;2022-11-21T06:23:48;100537.22;;;2.69;100.00
69037;BME280;58547;51.690;5.186;2022-11-21T06:26:14;100529.41;;;2.71;100.00
69037;BME280;58547;51.690;5.186;2022-11-21T06:28:40;100515.66;;;2.72;100.00
69037;BME280;58547;51.690;5.186;2022-11-21T06:31:07;100503.72;;;2.69;100.00
69037;BME280;58547;51.690;5.186;2022-11-21T06:33:32;100508.88;;;2.69;100.00
69037;BME280;58547;51.690;5.186;2022-11-21T06:36:09;100512.19;;;2.73;100.00
69037;BME280;58547;51.690;5.186;2022-11-21T06:38:35;100504.44;;;2.74;100.00
69037;BME280;58547;51.690;5.186;2022-11-21T06:41:08;100499.28;;;2.74;100.00
69037;BME280;58547;51.690;5.186;2022-11-21T06:43:34;100494.16;;;2.73;100.00
69037;BME280;58547;51.690;5.186;2022-11-21T06:45:59;100500.13;;;2.75;100.00
69037;BME280;58547;51.690;5.186;2022-11-21T06:48:27;100505.28;;;2.75;100.00
69037;BME280;58547;51.690;5.186;2022-11-21T06:50:52;100502.66;;;2.76;100.00
69037;BME280;58547;51.690;5.186;2022-11-21T06:53:17;100500.88;;;2.78;100.00
69037;BME280;58547;51.690;5.186;2022-11-21T06:55:43;100498.94;;;2.87;100.00
69037;BME280;58547;51.690;5.186;2022-11-21T06:58:08;100490.91;;;2.97;100.00
69037;BME280;58547;51.690;5.186;2022-11-21T07:00:33;100490.38;;;3.16;100.00
69037;BME280;58547;51.690;5.186;2022-11-21T07:02:59;100495.28;;;3.25;100.00
69037;BME280;58547;51.690;5.186;2022-11-21T07:05:25;100496.75;;;3.32;100.00
69037;BME280;58547;51.690;5.186;2022-11-21T07:07:50;100494.84;;;3.39;100.00
69037;BME280;58547;51.690;5.186;2022-11-21T07:10:15;100492.84;;;3.49;100.00
69037;BME280;58547;51.690;5.186;2022-11-21T07:12:41;100480.34;;;3.63;100.00
69037;BME280;58547;51.690;5.186;2022-11-21T07:15:24;100470.84;;;3.65;100.00
69037;BME280;58547;51.690;5.186;2022-11-21T07:17:50;100474.28;;;3.64;100.00
69037;BME280;58547;51.690;5.186;2022-11-21T07:20:15;100471.31;;;3.50;100.00
69037;BME280;58547;51.690;5.186;2022-11-21T07:22:40;100478.53;;;3.38;100.00
69037;BME280;58547;51.690;5.186;2022-11-21T07:25:05;100484.03;;;3.28;100.00
69037;BME280;58547;51.690;5.186;2022-11-21T07:27:31;100477.31;;;3.22;100.00
69037;BME280;58547;51.690;5.186;2022-11-21T07:29:56;100473.88;;;3.21;100.00
69037;BME280;58547;51.690;5.186;2022-11-21T07:32:25;100470.50;;;3.19;100.00
69037;BME280;58547;51.690;5.186;2022-11-21T07:34:51;100470.47;;;3.21;100.00
69037;BME280;58547;51.690;5.186;2022-11-21T07:37:16;100473.88;;;3.21;100.00
69037;BME280;58547;51.690;5.186;2022-11-21T07:39:41;100473.78;;;3.24;100.00
69037;BME280;58547;51.690;5.186;2022-11-21T07:42:06;100477.97;;;3.29;100.00
69037;BME280;58547;51.690;5.186;2022-11-21T07:44:31;100485.50;;;3.35;100.00
69037;BME280;58547;51.690;5.186;2022-11-21T07:46:57;100485.31;;;3.41;100.00
69037;BME280;58547;51.690;5.186;2022-11-21T07:49:22;100490.28;;;3.47;100.00
69037;BME280;58547;51.690;5.186;2022-11-21T07:51:47;100488.50;;;3.49;100.00
69037;BME280;58547;51.690;5.186;2022-11-21T07:54:12;100479.03;;;3.50;100.00
69037;BME280;58547;51.690;5.186;2022-11-21T07:56:37;100474.75;;;3.50;100.00
69037;BME280;58547;51.690;5.186;2022-11-21T07:59:02;100467.84;;;3.51;100.00
69037;BME280;58547;51.690;5.186;2022-11-21T08:01:28;100466.09;;;3.51;100.00
69037;BME280;58547;51.690;5.186;2022-11-21T08:03:53;100463.47;;;3.53;100.00
69037;BME280;58547;51.690;5.186;2022-11-21T08:06:18;100468.50;;;3.57;100.00
69037;BME280;58547;51.690;5.186;2022-11-21T08:08:43;100459.47;;;3.71;100.00
69037;BME280;58547;51.690;5.186;2022-11-21T08:11:08;100455.44;;;3.89;100.00
69037;BME280;58547;51.690;5.186;2022-11-21T08:13:34;100451.56;;;4.02;100.00
69037;BME280;58547;51.690;5.186;2022-11-21T08:16:00;100440.69;;;4.19;100.00
69037;BME280;58547;51.690;5.186;2022-11-21T08:18:26;100440.13;;;4.34;100.00
69037;BME280;58547;51.690;5.186;2022-11-21T08:20:51;100431.84;;;4.50;100.00
69037;BME280;58547;51.690;5.186;2022-11-21T08:23:16;100425.09;;;4.45;100.00
69037;BME280;58547;51.690;5.186;2022-11-21T08:25:42;100432.22;;;4.39;100.00
69037;BME280;58547;51.690;5.186;2022-11-21T08:28:07;100428.06;;;4.35;100.00
69037;BME280;58547;51.690;5.186;2022-11-21T08:30:33;100423.06;;;4.30;100.00
69037;BME280;58547;51.690;5.186;2022-11-21T08:32:58;100426.59;;;4.28;100.00
69037;BME280;58547;51.690;5.186;2022-11-21T08:35:24;100422.41;;;4.25;100.00
69037;BME280;58547;51.690;5.186;2022-11-21T08:37:53;100410.50;;;4.21;100.00
69037;BME280;58547;51.690;5.186;2022-11-21T08:40:19;100407.13;;;4.19;100.00
69037;BME280;58547;51.690;5.186;2022-11-21T08:42:44;100410.59;;;4.18;100.00
69037;BME280;58547;51.690;5.186;2022-11-21T08:45:09;100408.00;;;4.18;100.00
69037;BME280;58547;51.690;5.186;2022-11-21T08:47:34;100402.06;;;4.16;100.00
69037;BME280;58547;51.690;5.186;2022-11-21T08:49:59;100412.50;;;4.13;100.00
69037;BME280;58547;51.690;5.186;2022-11-21T08:52:24;100403.00;;;4.13;100.00
69037;BME280;58547;51.690;5.186;2022-11-21T08:54:50;100397.84;;;4.13;100.00
69037;BME280;58547;51.690;5.186;2022-11-21T08:57:15;100397.00;;;4.13;100.00
69037;BME280;58547;51.690;5.186;2022-11-21T08:59:40;100387.91;;;4.26;100.00
69037;BME280;58547;51.690;5.186;2022-11-21T09:02:05;100390.81;;;4.42;100.00
69037;BME280;58547;51.690;5.186;2022-11-21T09:04:33;100390.84;;;4.40;100.00
69037;BME280;58547;51.690;5.186;2022-11-21T09:06:58;100388.22;;;4.42;100.00
69037;BME280;58547;51.690;5.186;2022-11-21T09:09:24;100389.09;;;4.41;100.00
69037;BME280;58547;51.690;5.186;2022-11-21T09:11:49;100383.06;;;4.42;100.00
69037;BME280;58547;51.690;5.186;2022-11-21T09:14:15;100384.94;;;4.37;100.00
69037;BME280;58547;51.690;5.186;2022-11-21T09:16:58;100385.66;;;4.42;100.00
69037;BME280;58547;51.690;5.186;2022-11-21T09:19:42;100376.81;;;4.47;100.00
69037;BME280;58547;51.690;5.186;2022-11-21T09:22:08;100370.53;;;4.55;100.00
69037;BME280;58547;51.690;5.186;2022-11-21T09:24:33;100365.31;;;4.56;100.00
69037;BME280;58547;51.690;5.186;2022-11-21T09:26:58;100371.31;;;4.57;100.00
69037;BME280;58547;51.690;5.186;2022-11-21T09:29:23;100371.94;;;4.63;100.00
69037;BME280;58547;51.690;5.186;2022-11-21T09:31:49;100371.81;;;4.66;100.00
69037;BME280;58547;51.690;5.186;2022-11-21T09:34:14;100368.28;;;4.69;100.00
69037;BME280;58547;51.690;5.186;2022-11-21T09:36:39;100367.38;;;4.70;100.00
69037;BME280;58547;51.690;5.186;2022-11-21T09:39:04;100363.72;;;4.76;100.00
69037;BME280;58547;51.690;5.186;2022-11-21T09:41:41;100358.38;;;4.80;100.00
69037;BME280;58547;51.690;5.186;2022-11-21T09:44:22;100358.13;;;4.86;100.00
69037;BME280;58547;51.690;5.186;2022-11-21T09:46:56;100344.97;;;4.93;100.00
69037;BME280;58547;51.690;5.186;2022-11-21T09:49:25;100350.78;;;4.98;100.00
69037;BME280;58547;51.690;5.186;2022-11-21T09:51:51;100342.03;;;5.02;100.00
69037;BME280;58547;51.690;5.186;2022-11-21T09:54:22;100343.72;;;5.03;100.00
69037;BME280;58547;51.690;5.186;2022-11-21T09:56:50;100340.22;;;5.04;100.00
69037;BME280;58547;51.690;5.186;2022-11-21T10:01:42;100334.69;;;5.13;100.00
69037;BME280;58547;51.690;5.186;2022-11-21T10:04:07;100328.50;;;5.17;100.00
69037;BME280;58547;51.690;5.186;2022-11-21T10:06:50;100326.56;;;5.22;100.00
69037;BME280;58547;51.690;5.186;2022-11-21T10:17:25;100322.59;;;5.56;100.00
69037;BME280;58547;51.690;5.186;2022-11-21T10:25:12;100313.72;;;5.82;100.00
69037;BME280;58547;51.690;5.186;2022-11-21T10:27:49;100304.06;;;5.86;100.00
69037;BME280;58547;51.690;5.186;2022-11-21T10:30:19;100304.69;;;5.91;100.00
69037;BME280;58547;51.690;5.186;2022-11-21T10:32:49;100303.81;;;5.92;100.00
69037;BME280;58547;51.690;5.186;2022-11-21T10:35:16;100306.41;;;5.92;100.00
69037;BME280;58547;51.690;5.186;2022-11-21T10:37:56;100295.03;;;5.96;100.00
69037;BME280;58547;51.690;5.186;2022-11-21T10:40:31;100289.59;;;6.02;100.00
69037;BME280;58547;51.690;5.186;2022-11-21T10:43:03;100284.41;;;6.02;100.00
69037;BME280;58547;51.690;5.186;2022-11-21T10:45:48;100279.28;;;6.01;100.00
69037;BME280;58547;51.690;5.186;2022-11-21T10:48:13;100286.28;;;5.99;100.00
69037;BME280;58547;51.690;5.186;2022-11-21T10:56:03;100267.56;;;5.92;100.00
69037;BME280;58547;51.690;5.186;2022-11-21T10:58:39;100266.66;;;5.93;100.00
69037;BME280;58547;51.690;5.186;2022-11-21T11:01:05;100257.03;;;5.97;100.00
69037;BME280;58547;51.690;5.186;2022-11-21T11:03:30;100251.38;;;6.07;100.00
69037;BME280;58547;51.690;5.186;2022-11-21T11:05:56;100257.97;;;6.15;100.00
69037;BME280;58547;51.690;5.186;2022-11-21T11:08:22;100247.59;;;6.15;100.00
69037;BME280;58547;51.690;5.186;2022-11-21T11:11:04;100244.38;;;6.10;100.00
69037;BME280;58547;51.690;5.186;2022-11-21T11:13:30;100248.50;;;6.14;100.00
69037;BME280;58547;51.690;5.186;2022-11-21T11:18:39;100231.13;;;6.35;100.00
69037;BME280;58547;51.690;5.186;2022-11-21T11:21:47;100229.94;;;6.42;100.00
69037;BME280;58547;51.690;5.186;2022-11-21T11:23:54;100224.53;;;6.46;100.00
69037;BME280;58547;51.690;5.186;2022-11-21T11:26:30;100220.13;;;6.48;100.00
69037;BME280;58547;51.690;5.186;2022-11-21T11:31:42;100215.50;;;6.55;100.00
69037;BME280;58547;51.690;5.186;2022-11-21T11:34:11;100203.13;;;6.60;100.00
69037;BME280;58547;51.690;5.186;2022-11-21T11:36:44;100199.28;;;6.69;100.00
69037;BME280;58547;51.690;5.186;2022-11-21T11:44:32;100179.91;;;6.76;100.00
69037;BME280;58547;51.690;5.186;2022-11-21T11:47:21;100170.31;;;6.78;100.00
69037;BME280;58547;51.690;5.186;2022-11-21T11:49:58;100165.94;;;6.79;100.00
69037;BME280;58547;51.690;5.186;2022-11-21T11:55:06;100145.44;;;6.92;100.00
69037;BME280;58547;51.690;5.186;2022-11-21T11:57:32;100131.41;;;6.96;100.00
69037;BME280;58547;51.690;5.186;2022-11-21T12:05:27;100122.41;;;7.03;100.00
69037;BME280;58547;51.690;5.186;2022-11-21T12:08:01;100107.00;;;7.00;100.00
69037;BME280;58547;51.690;5.186;2022-11-21T12:10:40;100101.97;;;6.97;100.00
69037;BME280;58547;51.690;5.186;2022-11-21T12:13:26;100092.69;;;6.93;100.00
69037;BME280;58547;51.690;5.186;2022-11-21T12:15:52;100085.81;;;6.92;100.00
69037;BME280;58547;51.690;5.186;2022-11-21T12:23:09;100087.78;;;7.04;100.00
69037;BME280;58547;51.690;5.186;2022-11-21T12:25:36;100079.91;;;7.05;100.00
69037;BME280;58547;51.690;5.186;2022-11-21T12:28:02;100080.59;;;7.09;100.00
69037;BME280;58547;51.690;5.186;2022-11-21T12:33:05;100077.75;;;7.14;100.00
69037;BME280;58547;51.690;5.186;2022-11-21T12:38:14;100070.59;;;7.19;100.00
69037;BME280;58547;51.690;5.186;2022-11-21T12:43:23;100049.75;;;7.20;100.00
69037;BME280;58547;51.690;5.186;2022-11-21T12:54:39;100017.69;;;7.05;99.66
69037;BME280;58547;51.690;5.186;2022-11-21T13:02:25;99988.66;;;6.99;98.13
69037;BME280;58547;51.690;5.186;2022-11-21T13:04:53;99987.06;;;6.96;99.32
69037;BME280;58547;51.690;5.186;2022-11-21T13:07:20;99976.16;;;6.89;98.25
69037;BME280;58547;51.690;5.186;2022-11-21T13:09:46;99967.66;;;6.87;98.13
69037;BME280;58547;51.690;5.186;2022-11-21T13:12:14;99960.72;;;6.88;99.09
69037;BME280;58547;51.690;5.186;2022-11-21T13:14:52;99951.16;;;6.88;98.33
69037;BME280;58547;51.690;5.186;2022-11-21T13:25:01;99939.53;;;6.96;97.70
69037;BME280;58547;51.690;5.186;2022-11-21T13:27:36;99936.28;;;6.92;98.11
69037;BME280;58547;51.690;5.186;2022-11-21T13:35:01;99914.94;;;6.87;97.38
69037;BME280;58547;51.690;5.186;2022-11-21T13:45:36;99912.22;;;6.90;97.90
69037;BME280;58547;51.690;5.186;2022-11-21T13:58:36;99887.03;;;6.76;96.76
69037;BME280;58547;51.690;5.186;2022-11-21T14:05:57;99875.13;;;6.72;97.27
69037;BME280;58547;51.690;5.186;2022-11-21T14:08:26;99867.94;;;6.61;95.01
69037;BME280;58547;51.690;5.186;2022-11-21T14:10:55;99857.09;;;6.55;95.42
69037;BME280;58547;51.690;5.186;2022-11-21T14:13:28;99861.75;;;6.48;96.37
69037;BME280;58547;51.690;5.186;2022-11-21T14:16:07;99859.94;;;6.50;94.99
69037;BME280;58547;51.690;5.186;2022-11-21T14:18:37;99850.47;;;6.49;97.24
69037;BME280;58547;51.690;5.186;2022-11-21T14:21:03;99842.44;;;6.54;97.01
69037;BME280;58547;51.690;5.186;2022-11-21T14:23:32;99835.69;;;6.51;97.07
69037;BME280;58547;51.690;5.186;2022-11-21T14:25:59;99838.34;;;6.49;96.60
69037;BME280;58547;51.690;5.186;2022-11-21T14:28:32;99835.84;;;6.48;97.10
69037;BME280;58547;51.690;5.186;2022-11-21T14:31:08;99829.81;;;6.47;97.88
69037;BME280;58547;51.690;5.186;2022-11-21T14:33:34;99834.25;;;6.45;96.79
69037;BME280;58547;51.690;5.186;2022-11-21T14:38:25;99822.97;;;6.46;99.19
69037;BME280;58547;51.690;5.186;2022-11-21T14:41:10;99824.56;;;6.49;98.30
69037;BME280;58547;51.690;5.186;2022-11-21T14:43:36;99812.28;;;6.53;98.27